Time;durP1;ratioP1;P1;durP2;ratioP2;P2;SDS_P1;SDS_P2;PMS_P1;PMS_P2;Temp;Humidity;BMP_temperature;BMP_pressure;BME280_temperature;BME280_humidity;BME280_pressure;Samples;Min_cycle;Max_cycle;Signal;HPM_P1;HPM_P2
2022/08/18 00:02:20;;;;;;;;;5.75;5.00;;;;;18.68;100.00;98908.69;5073278;28;45644;-53
2022/08/18 00:04:45;;;;;;;;;8.00;5.20;;;;;18.66;100.00;98909.78;5073973;27;45678;-54
2022/08/18 00:07:15;;;;;;;;;5.50;5.00;;;;;18.65;100.00;98898.25;5074160;28;45368;-53
2022/08/18 00:09:41;;;;;;;;;5.80;5.80;;;;;18.64;100.00;98885.88;5077881;28;45365;-54
2022/08/18 00:12:17;;;;;;;;;4.75;4.75;;;;;18.64;100.00;98887.69;5077515;28;45602;-52
2022/08/18 00:14:44;;;;;;;;;6.20;6.20;;;;;18.62;100.00;98877.13;5077389;27;47069;-53
2022/08/18 00:17:09;;;;;;;;;4.40;4.40;;;;;18.62;100.00;98866.44;5076439;28;45530;-52
2022/08/18 00:19:35;;;;;;;;;3.25;3.25;;;;;18.61;100.00;98883.41;5077706;27;45800;-52
2022/08/18 00:22:00;;;;;;;;;5.25;3.75;;;;;18.61;100.00;98894.09;5076528;28;45573;-53
2022/08/18 00:24:25;;;;;;;;;5.00;2.75;;;;;18.62;100.00;98895.81;5076138;27;45414;-49
2022/08/18 00:26:51;;;;;;;;;2.75;2.50;;;;;18.61;100.00;98902.13;5076780;28;45485;-51
2022/08/18 00:29:17;;;;;;;;;3.75;3.75;;;;;18.62;100.00;98902.97;5077661;27;45317;-55
2022/08/18 00:31:42;;;;;;;;;4.00;3.00;;;;;18.62;100.00;98894.97;5076615;28;45590;-52
2022/08/18 00:34:07;;;;;;;;;3.75;3.50;;;;;18.61;100.00;98878.09;5076705;28;45376;-54
2022/08/18 00:36:34;;;;;;;;;4.50;3.00;;;;;18.60;100.00;98871.03;5076785;28;45729;-55
2022/08/18 00:39:00;;;;;;;;;3.75;3.75;;;;;18.62;100.00;98881.59;5077211;27;45522;-53
2022/08/18 00:41:26;;;;;;;;;4.25;3.00;;;;;18.61;100.00;98888.75;5075814;28;45469;-52
2022/08/18 00:43:54;;;;;;;;;4.00;4.00;;;;;18.60;100.00;98889.72;5076760;27;46286;-52
2022/08/18 00:46:27;;;;;;;;;3.00;3.00;;;;;18.56;100.00;98880.25;5075261;28;45443;-53
2022/08/18 00:48:52;;;;;;;;;4.40;3.60;;;;;18.55;100.00;98875.03;5077157;28;45728;-52
2022/08/18 00:51:24;;;;;;;;;2.50;2.50;;;;;18.54;100.00;98865.31;5076321;28;45423;-49
2022/08/18 00:54:00;;;;;;;;;4.00;3.60;;;;;18.54;100.00;98860.81;5072635;28;46376;-51
2022/08/18 00:56:32;;;;;;;;;2.80;2.40;;;;;18.51;100.00;98855.72;5075500;27;45584;-50
2022/08/18 00:59:01;;;;;;;;;3.00;2.60;;;;;18.50;100.00;98848.66;5077295;27;45539;-50
2022/08/18 01:01:31;;;;;;;;;1.80;1.80;;;;;18.49;100.00;98853.16;5075762;28;45461;-53
2022/08/18 01:04:08;;;;;;;;;3.00;2.20;;;;;18.49;100.00;98850.47;5076736;27;45692;-52
2022/08/18 01:06:33;;;;;;;;;3.40;3.40;;;;;18.48;100.00;98855.94;5076362;28;45461;-53
2022/08/18 01:09:00;;;;;;;;;2.75;2.75;;;;;18.45;100.00;98851.69;5076728;27;45450;-51
2022/08/18 01:11:26;;;;;;;;;3.00;3.00;;;;;18.44;100.00;98863.31;5075947;28;45388;-52
2022/08/18 01:13:52;;;;;;;;;3.00;2.00;;;;;18.40;100.00;98855.69;5076291;28;46206;-52
2022/08/18 01:21:54;;;;;;;;;4.40;3.40;;;;;18.36;100.00;98833.72;5075885;28;45554;-52
2022/08/18 01:27:16;;;;;;;;;4.20;3.00;;;;;18.38;100.00;98833.59;5075848;28;45363;-53
2022/08/18 01:29:42;;;;;;;;;3.00;3.00;;;;;18.33;100.00;98841.94;5076785;28;45545;-54
2022/08/18 01:32:08;;;;;;;;;3.20;3.00;;;;;18.32;100.00;98842.91;5074972;28;45411;-54
2022/08/18 01:34:33;;;;;;;;;2.75;2.75;;;;;18.32;100.00;98836.72;5057821;28;47184;-53
2022/08/18 01:36:59;;;;;;;;;4.25;4.25;;;;;18.31;100.00;98843.88;5075280;28;45424;-54
2022/08/18 01:39:24;;;;;;;;;5.00;2.75;;;;;18.32;100.00;98828.72;5076794;27;45434;-54
2022/08/18 01:41:50;;;;;;;;;3.00;3.00;;;;;18.31;100.00;98833.22;5075887;28;45359;-54
2022/08/18 01:44:15;;;;;;;;;3.50;3.50;;;;;18.31;100.00;98835.88;5076333;28;46591;-51
2022/08/18 01:46:41;;;;;;;;;4.75;3.00;;;;;18.30;100.00;98838.66;5075363;28;45389;-52
2022/08/18 01:49:07;;;;;;;;;5.00;4.50;;;;;18.28;100.00;98841.44;5075408;28;45382;-52
2022/08/18 01:51:36;;;;;;;;;5.00;4.00;;;;;18.28;100.00;98830.75;5075038;28;45381;-53
2022/08/18 01:54:03;;;;;;;;;4.40;4.00;;;;;18.29;100.00;98828.94;5075917;28;46747;-50
2022/08/18 01:56:29;;;;;;;;;4.20;4.00;;;;;18.28;100.00;98820.09;5075655;28;45463;-51
2022/08/18 01:58:55;;;;;;;;;4.00;4.00;;;;;18.27;100.00;98834.41;5075646;27;45578;-50
2022/08/18 02:01:22;;;;;;;;;5.00;5.00;;;;;18.26;100.00;98832.72;5073934;27;45472;-50
2022/08/18 02:03:53;;;;;;;;;4.80;3.40;;;;;18.24;100.00;98847.16;5075564;27;45589;-50
2022/08/18 02:06:18;;;;;;;;;6.20;4.40;;;;;18.22;100.00;98841.94;5075051;27;45422;-52
2022/08/18 02:08:45;;;;;;;;;3.00;3.00;;;;;18.23;100.00;98838.28;5076048;28;45341;-49
2022/08/18 02:11:11;;;;;;;;;4.50;4.50;;;;;18.23;100.00;98837.44;5075207;28;45539;-52
2022/08/18 02:13:37;;;;;;;;;3.00;3.00;;;;;18.21;100.00;98834.03;5075932;27;47379;-51
2022/08/18 02:16:03;;;;;;;;;4.50;3.00;;;;;18.20;100.00;98832.34;5074830;28;45369;-53
2022/08/18 02:18:32;;;;;;;;;5.40;4.40;;;;;18.16;100.00;98830.84;5076099;27;45451;-54
2022/08/18 02:21:09;;;;;;;;;4.00;4.00;;;;;18.11;100.00;98828.53;5074969;28;45571;-54
2022/08/18 02:23:35;;;;;;;;;4.40;3.80;;;;;18.05;100.00;98826.34;5075319;28;46242;-53
2022/08/18 02:26:13;;;;;;;;;3.00;3.00;;;;;18.00;100.00;98839.16;5074744;28;45388;-52
2022/08/18 02:28:39;;;;;;;;;4.00;3.60;;;;;17.96;100.00;98838.53;5075135;28;45443;-48
2022/08/18 02:31:11;;;;;;;;;3.00;3.00;;;;;17.96;100.00;98835.00;5073834;28;45571;-51
2022/08/18 02:33:36;;;;;;;;;4.40;4.00;;;;;17.95;100.00;98833.31;5074924;27;45723;-55
2022/08/18 02:36:02;;;;;;;;;4.00;4.00;;;;;17.93;100.00;98822.75;5074878;28;45394;-55
2022/08/18 02:38:28;;;;;;;;;5.00;4.00;;;;;17.94;100.00;98818.28;5075393;27;45147;-53
2022/08/18 02:40:56;;;;;;;;;2.50;2.50;;;;;17.96;100.00;98816.34;5075690;28;45553;-54
2022/08/18 02:43:22;;;;;;;;;5.00;4.00;;;;;17.95;100.00;98812.81;5075091;28;46268;-54
2022/08/18 02:45:47;;;;;;;;;4.00;4.00;;;;;17.98;100.00;98806.41;5075028;28;45409;-56
2022/08/18 02:48:12;;;;;;;;;3.00;3.00;;;;;17.99;100.00;98810.78;5074611;28;45347;-56
2022/08/18 02:50:47;;;;;;;;;5.00;4.50;;;;;18.00;100.00;98801.81;5075508;28;45424;-51
2022/08/18 02:53:21;;;;;;;;;3.20;3.20;;;;;18.02;100.00;98813.22;5074184;28;46234;-54
2022/08/18 02:55:47;;;;;;;;;5.00;4.60;;;;;18.03;100.00;98813.13;5075331;27;45452;-53
2022/08/18 02:58:13;;;;;;;;;3.00;3.00;;;;;18.03;100.00;98813.13;5074251;28;45558;-49
2022/08/18 03:00:38;;;;;;;;;3.00;3.00;;;;;18.04;100.00;98795.28;5075166;27;45458;-50
2022/08/18 03:03:04;;;;;;;;;4.00;3.00;;;;;18.05;100.00;98795.19;5073888;28;45500;-51
2022/08/18 03:05:29;;;;;;;;;2.00;2.00;;;;;18.05;100.00;98797.84;5075245;27;45416;-52
2022/08/18 03:07:55;;;;;;;;;2.50;2.50;;;;;18.03;100.00;98798.91;5074239;28;45431;-51
2022/08/18 03:10:21;;;;;;;;;5.00;3.00;;;;;18.04;100.00;98804.16;5075108;28;45361;-53
2022/08/18 03:12:46;;;;;;;;;3.25;2.75;;;;;18.05;100.00;98799.66;5073892;28;47123;-62
2022/08/18 03:15:11;;;;;;;;;4.25;4.00;;;;;18.02;100.00;98803.41;5074949;28;45380;-62
2022/08/18 03:17:37;;;;;;;;;4.75;4.00;;;;;17.99;100.00;98800.97;5073622;28;45439;-63
2022/08/18 03:20:04;;;;;;;;;6.00;6.00;;;;;17.97;100.00;98799.38;5074603;28;45481;-62
2022/08/18 03:22:30;;;;;;;;;5.25;5.25;;;;;17.96;100.00;98808.34;5073640;28;45412;-63
2022/08/18 03:24:57;;;;;;;;;5.00;5.00;;;;;17.95;100.00;98811.97;5074723;28;45484;-64
2022/08/18 03:27:23;;;;;;;;;5.80;5.80;;;;;17.94;100.00;98807.59;5073935;28;45501;-64
2022/08/18 03:29:50;;;;;;;;;5.50;5.50;;;;;17.91;100.00;98800.72;5074493;27;45558;-64
2022/08/18 03:32:15;;;;;;;;;6.00;5.00;;;;;17.91;100.00;98814.03;5072987;28;45694;-64
2022/08/18 03:34:41;;;;;;;;;4.25;4.00;;;;;17.87;100.00;98819.72;5073366;28;45314;-65
2022/08/18 03:37:08;;;;;;;;;6.75;5.00;;;;;17.82;100.00;98812.03;5075641;27;45576;-64
2022/08/18 03:39:33;;;;;;;;;8.00;6.25;;;;;17.78;100.00;98814.09;5074528;28;45404;-64
2022/08/18 03:41:59;;;;;;;;;4.50;4.50;;;;;17.74;100.00;98812.63;5073621;28;45456;-67
2022/08/18 03:44:26;;;;;;;;;4.25;3.00;;;;;17.69;100.00;98816.59;5074870;28;45425;-65
2022/08/18 03:46:52;;;;;;;;;4.60;4.60;;;;;17.64;100.00;98824.94;5073478;28;45523;-66
2022/08/18 03:49:19;;;;;;;;;7.75;4.25;;;;;17.59;100.00;98837.72;5074737;28;45389;-66
2022/08/18 03:51:50;;;;;;;;;2.60;2.60;;;;;17.52;100.00;98831.13;5073572;28;46380;-66
2022/08/18 03:54:17;;;;;;;;;2.00;2.00;;;;;17.45;100.00;98824.53;5081197;27;45552;-66
2022/08/18 03:56:45;;;;;;;;;2.60;2.20;;;;;17.37;100.00;98822.44;5072414;28;45423;-66
2022/08/18 03:59:16;;;;;;;;;4.00;3.75;;;;;17.32;100.00;98823.72;5074240;28;45296;-65
2022/08/18 04:01:43;;;;;;;;;2.00;2.00;;;;;17.23;100.00;98821.75;5072655;28;46313;-67
2022/08/18 04:04:13;;;;;;;;;3.60;2.00;;;;;17.21;100.00;98816.53;5074164;28;45442;-67
2022/08/18 04:06:55;;;;;;;;;3.20;3.20;;;;;17.19;100.00;98814.91;5070716;28;45472;-67
2022/08/18 04:09:26;;;;;;;;;3.00;3.00;;;;;17.15;100.00;98818.75;5075588;27;45573;-67
2022/08/18 04:11:52;;;;;;;;;4.00;3.20;;;;;17.14;100.00;98819.72;5073396;28;47231;-66
2022/08/18 04:14:23;;;;;;;;;3.20;3.00;;;;;17.17;100.00;98817.69;5074134;28;45452;-65
2022/08/18 04:16:49;;;;;;;;;4.00;3.40;;;;;17.14;100.00;98811.72;5073624;28;45565;-64
2022/08/18 04:19:16;;;;;;;;;4.50;3.00;;;;;17.08;100.00;98819.22;5073622;28;45414;-65
2022/08/18 04:21:43;;;;;;;;;3.40;3.00;;;;;17.04;100.00;98819.53;5064637;28;47700;-62
2022/08/18 04:24:10;;;;;;;;;4.80;3.40;;;;;17.05;100.00;98831.91;5074141;28;45407;-61
2022/08/18 04:26:39;;;;;;;;;2.20;2.20;;;;;17.06;100.00;98829.13;5050692;27;45255;-62
2022/08/18 04:29:06;;;;;;;;;3.00;3.00;;;;;17.10;100.00;98822.59;5074546;27;45413;-61
2022/08/18 04:31:32;;;;;;;;;4.60;4.60;;;;;17.12;100.00;98818.97;5072949;28;46318;-61
2022/08/18 04:33:59;;;;;;;;;3.75;3.50;;;;;17.14;100.00;98820.56;5073948;28;45509;-61
2022/08/18 04:36:26;;;;;;;;;4.20;4.20;;;;;17.18;100.00;98823.88;5064237;28;45349;-61
2022/08/18 04:38:52;;;;;;;;;7.00;6.00;;;;;17.24;100.00;98837.63;5057881;28;45575;-61
2022/08/18 04:41:18;;;;;;;;;10.00;6.00;;;;;17.30;100.00;98839.81;5056693;28;46157;-61
2022/08/18 04:43:43;;;;;;;;;7.80;6.00;;;;;17.34;100.00;98828.00;5065940;28;45413;-61
2022/08/18 04:46:10;;;;;;;;;6.50;6.50;;;;;17.40;100.00;98816.91;5056779;28;45431;-61
2022/08/18 04:48:40;;;;;;;;;3.50;3.50;;;;;17.44;100.00;98823.69;5046430;28;45576;-61
2022/08/18 04:51:14;;;;;;;;;5.00;5.00;;;;;17.50;100.00;98821.53;5061829;28;46725;-61
2022/08/18 04:53:46;;;;;;;;;5.40;5.20;;;;;17.53;100.00;98814.19;5057415;28;45385;-61
2022/08/18 04:56:26;;;;;;;;;4.40;3.60;;;;;17.57;100.00;98810.34;5044121;28;45790;-61
2022/08/18 04:58:53;;;;;;;;;3.00;3.00;;;;;17.62;100.00;98799.31;5062103;28;45503;-61
2022/08/18 05:01:21;;;;;;;;;5.40;4.00;;;;;17.64;100.00;98800.06;5066957;28;46163;-61
2022/08/18 05:03:50;;;;;;;;;2.20;2.20;;;;;17.65;100.00;98793.78;5038466;28;45370;-61
2022/08/18 05:06:17;;;;;;;;;3.00;3.00;;;;;17.65;100.00;98783.13;5057159;28;45374;-61
2022/08/18 05:08:43;;;;;;;;;4.25;3.00;;;;;17.65;100.00;98783.97;5057282;28;45631;-61
2022/08/18 05:11:08;;;;;;;;;6.75;6.25;;;;;17.66;100.00;98772.34;5067796;28;46368;-61
2022/08/18 05:13:35;;;;;;;;;12.00;12.00;;;;;17.67;100.00;98782.03;5062543;28;45504;-60
2022/08/18 05:16:02;;;;;;;;;5.00;5.00;;;;;17.69;100.00;98790.78;5070288;28;45432;-61
2022/08/18 05:18:37;;;;;;;;;5.00;5.00;;;;;17.72;100.00;98811.03;5056604;28;45532;-61
2022/08/18 05:21:03;;;;;;;;;10.60;8.80;;;;;17.75;100.00;98810.81;5056670;28;45566;-62
2022/08/18 05:23:29;;;;;;;;;7.40;7.00;;;;;17.76;100.00;98808.00;5060902;28;45494;-61
2022/08/18 05:25:59;;;;;;;;;7.50;6.75;;;;;17.80;100.00;98811.31;5063193;28;45386;-61
2022/08/18 05:28:25;;;;;;;;;8.00;8.00;;;;;17.84;100.00;98820.78;5059807;28;45543;-64
2022/08/18 05:30:51;;;;;;;;;6.00;5.80;;;;;17.86;100.00;98826.00;5057157;28;45628;-64
2022/08/18 05:33:16;;;;;;;;;7.75;7.75;;;;;17.89;100.00;98823.13;5054286;28;45411;-63
2022/08/18 05:35:54;;;;;;;;;9.50;7.75;;;;;17.92;100.00;98812.22;5067804;28;45318;-63
2022/08/18 05:38:43;;;;;;;;;5.00;5.00;;;;;17.92;100.00;98818.41;5075345;28;45499;-63
2022/08/18 05:41:13;;;;;;;;;5.20;5.00;;;;;17.93;100.00;98824.59;5075172;28;46221;-63
2022/08/18 05:43:41;;;;;;;;;4.40;4.00;;;;;17.93;100.00;98838.75;5075837;28;45476;-63
2022/08/18 05:46:09;;;;;;;;;6.80;6.40;;;;;17.94;100.00;98834.28;5075482;28;45500;-63
2022/08/18 05:48:35;;;;;;;;;5.50;5.00;;;;;17.93;100.00;98837.94;5073056;28;45649;-62
2022/08/18 05:51:19;;;;;;;;;6.50;5.00;;;;;17.92;100.00;98834.41;5054874;28;46055;-62
2022/08/18 05:56:46;;;;;;;;;7.00;5.00;;;;;17.89;100.00;98831.13;5075060;28;45647;-65
2022/08/18 05:59:20;;;;;;;;;5.60;4.60;;;;;17.91;100.00;98831.88;5075778;28;45595;-65
2022/08/18 06:01:53;;;;;;;;;6.00;5.20;;;;;17.96;100.00;98835.00;5074420;28;46459;-65
2022/08/18 06:04:24;;;;;;;;;6.20;5.40;;;;;17.98;100.00;98838.41;5074882;28;45509;-63
2022/08/18 06:06:53;;;;;;;;;7.25;7.25;;;;;18.02;100.00;98840.75;5073424;28;45554;-63
2022/08/18 06:09:27;;;;;;;;;6.00;5.50;;;;;18.03;100.00;98844.28;5074908;28;45372;-63
2022/08/18 06:12:03;;;;;;;;;10.50;9.75;;;;;18.05;100.00;98845.88;5074342;28;45468;-63
2022/08/18 06:14:29;;;;;;;;;9.80;9.80;;;;;18.08;100.00;98839.44;5074978;28;45524;-63
2022/08/18 06:17:42;;;;;;;;;10.25;10.25;;;;;18.17;100.00;98838.75;5074202;28;45476;-63
2022/08/18 06:20:15;;;;;;;;;16.25;14.00;;;;;18.24;100.00;98844.47;5055796;28;45592;-63
2022/08/18 06:22:57;;;;;;;;;13.75;13.25;;;;;18.28;100.00;98844.09;5073814;28;46620;-63
2022/08/18 06:25:48;;;;;;;;;15.20;13.40;;;;;18.39;100.00;98854.84;5072867;28;45482;-63
2022/08/18 06:28:15;;;;;;;;;15.75;13.00;;;;;18.49;100.00;98852.31;5072543;28;45442;-64
2022/08/18 06:30:41;;;;;;;;;12.75;9.50;;;;;18.57;100.00;98849.91;5053295;28;45346;-68
2022/08/18 06:33:09;;;;;;;;;11.00;11.00;;;;;18.64;100.00;98845.81;5071858;28;46444;-68
2022/08/18 06:35:40;;;;;;;;;8.60;8.40;;;;;18.72;100.00;98842.56;5075270;28;46501;-68
2022/08/18 06:38:38;;;;;;;;;8.40;8.40;;;;;18.79;100.00;98841.94;5074283;28;45431;-68
2022/08/18 06:41:20;;;;;;;;;6.50;6.50;;;;;18.89;100.00;98836.75;5065980;28;45385;-68
2022/08/18 06:43:58;;;;;;;;;8.00;7.75;;;;;18.98;100.00;98835.16;5073072;28;45400;-68
2022/08/18 06:46:48;;;;;;;;;6.00;6.00;;;;;19.04;99.20;98835.53;5074536;28;45321;-68
2022/08/18 06:49:26;;;;;;;;;7.40;5.60;;;;;19.11;98.56;98833.22;5061773;28;45390;-69
2022/08/18 06:51:52;;;;;;;;;5.75;5.75;;;;;19.16;97.92;98836.38;5074147;28;45400;-69
2022/08/18 06:54:17;;;;;;;;;5.50;5.50;;;;;19.20;98.01;98837.00;5074176;28;45468;-69
2022/08/18 06:56:46;;;;;;;;;7.25;4.00;;;;;19.24;97.22;98843.78;5073366;28;45429;-68
2022/08/18 06:59:19;;;;;;;;;4.40;4.40;;;;;19.26;96.63;98837.34;5074651;28;45468;-69
2022/08/18 07:01:47;;;;;;;;;6.50;6.50;;;;;19.28;96.03;98830.03;5073932;28;45452;-68
2022/08/18 07:04:36;;;;;;;;;24.50;24.50;;;;;19.34;95.53;98826.88;5074964;27;45575;-69
2022/08/18 07:07:28;;;;;;;;;7.80;7.40;;;;;19.37;94.89;98829.31;5074000;28;45393;-56
2022/08/18 07:09:55;;;;;;;;;5.80;5.80;;;;;19.35;95.73;98822.38;5074243;28;45315;-54
2022/08/18 07:12:25;;;;;;;;;8.75;8.75;;;;;19.41;94.16;98808.53;5073410;28;45359;-55
2022/08/18 07:14:58;;;;;;;;;9.20;6.00;;;;;19.49;94.97;98811.41;5073542;28;46435;-59
2022/08/18 07:17:29;;;;;;;;;8.80;7.40;;;;;19.60;94.17;98799.91;5072155;28;45449;-56
2022/08/18 07:20:07;;;;;;;;;8.60;8.00;;;;;19.71;93.35;98802.53;5052790;28;45529;-55
2022/08/18 07:22:51;;;;;;;;;7.00;5.75;;;;;19.84;92.43;98800.53;5054780;28;46120;-58
2022/08/18 07:25:24;;;;;;;;;10.00;7.00;;;;;19.96;91.89;98804.00;5073491;28;46597;-57
2022/08/18 07:27:51;;;;;;;;;6.00;6.00;;;;;20.05;91.03;98796.06;5072092;28;45450;-57
2022/08/18 07:30:18;;;;;;;;;6.60;5.60;;;;;20.15;91.08;98799.66;5074066;28;45402;-58
2022/08/18 07:32:46;;;;;;;;;6.75;5.75;;;;;20.26;89.85;98792.56;5072729;28;45810;-61
2022/08/18 07:35:16;;;;;;;;;6.40;6.40;;;;;20.34;89.14;98790.06;5073751;28;46694;-61
2022/08/18 07:37:55;;;;;;;;;7.40;7.20;;;;;20.39;89.54;98778.03;5072700;28;45483;-56
2022/08/18 07:40:23;;;;;;;;;8.80;8.00;;;;;20.45;88.59;98774.81;5072383;28;45534;-58
2022/08/18 07:43:06;;;;;;;;;11.00;9.20;;;;;20.46;87.79;98772.97;5072974;28;45467;-61
2022/08/18 07:45:31;;;;;;;;;5.00;5.00;;;;;20.47;87.72;98770.16;5073753;28;45559;-57
2022/08/18 07:48:24;;;;;;;;;6.00;6.00;;;;;20.47;87.31;98772.00;5073170;28;45383;-58
2022/08/18 07:51:14;;;;;;;;;6.00;5.20;;;;;20.48;86.69;98768.34;5056204;28;45516;-57
2022/08/18 07:53:48;;;;;;;;;6.25;6.25;;;;;20.45;84.82;98752.53;5073298;28;45724;-57
2022/08/18 07:56:37;;;;;;;;;8.40;6.60;;;;;20.39;84.40;98734.34;5072373;28;46520;-55
2022/08/18 07:59:09;;;;;;;;;5.00;5.00;;;;;20.32;84.40;98717.91;5073329;28;45222;-57
2022/08/18 08:01:48;;;;;;;;;6.60;5.40;;;;;20.20;85.24;98721.66;5053830;28;45539;-52
2022/08/18 08:04:25;;;;;;;;;7.00;5.75;;;;;20.07;86.62;98735.25;5073588;28;45478;-54
2022/08/18 08:07:09;;;;;;;;;7.00;7.00;;;;;19.99;85.29;98763.59;5072361;28;46385;-53
2022/08/18 08:10:01;;;;;;;;;9.80;9.20;;;;;19.96;86.44;98788.78;5073111;28;45469;-54
2022/08/18 08:12:44;;;;;;;;;8.20;8.00;;;;;20.00;85.19;98806.31;5047682;28;45450;-53
2022/08/18 08:15:09;;;;;;;;;6.40;5.40;;;;;20.01;85.19;98797.28;5073353;28;45493;-53
2022/08/18 08:17:48;;;;;;;;;5.00;4.75;;;;;20.03;85.33;98790.00;5072301;28;46620;-55
2022/08/18 08:20:36;;;;;;;;;7.20;7.20;;;;;20.04;85.30;98790.84;5072947;28;45473;-54
2022/08/18 08:23:08;;;;;;;;;6.80;6.00;;;;;20.05;84.86;98771.13;5071368;28;45578;-53
2022/08/18 08:26:02;;;;;;;;;6.80;6.80;;;;;20.09;84.59;98764.56;5073406;28;45494;-53
2022/08/18 08:28:46;;;;;;;;;8.20;7.00;;;;;20.14;84.41;98768.50;5018620;28;45681;-54
2022/08/18 08:31:20;;;;;;;;;8.20;7.40;;;;;20.16;81.98;98768.38;5074664;28;45738;-54
2022/08/18 08:34:11;;;;;;;;;6.60;5.40;;;;;20.12;82.89;98757.09;5076983;28;45502;-54
2022/08/18 08:36:43;;;;;;;;;5.00;5.00;;;;;20.15;83.22;98747.94;5075936;28;45700;-53
2022/08/18 08:39:35;;;;;;;;;6.60;6.20;;;;;20.19;83.45;98746.72;5077133;28;45489;-52
2022/08/18 08:42:11;;;;;;;;;5.80;5.80;;;;;20.20;83.15;98741.22;5068236;28;45256;-54
2022/08/18 08:44:59;;;;;;;;;5.00;4.40;;;;;20.21;82.95;98734.06;5070167;28;45422;-53
2022/08/18 08:47:35;;;;;;;;;4.60;4.60;;;;;20.24;83.17;98733.78;5066629;28;45577;-55
2022/08/18 08:50:12;;;;;;;;;4.80;4.80;;;;;20.32;83.13;98728.63;5076290;28;46253;-55
2022/08/18 08:52:51;;;;;;;;;5.40;5.40;;;;;20.43;81.78;98727.75;5075855;28;45535;-55
2022/08/18 08:55:24;;;;;;;;;5.20;5.20;;;;;20.49;82.13;98727.19;5076580;28;45314;-54
2022/08/18 08:57:53;;;;;;;;;5.40;5.40;;;;;20.57;81.63;98734.56;5075773;28;45487;-55
2022/08/18 09:00:18;;;;;;;;;7.40;7.00;;;;;20.61;80.73;98747.53;5076072;28;45469;-56
2022/08/18 09:02:49;;;;;;;;;5.25;5.00;;;;;20.70;81.52;98748.56;5057149;28;45358;-54
2022/08/18 09:05:26;;;;;;;;;7.60;5.80;;;;;20.86;81.61;98747.09;5076718;27;45467;-55
2022/08/18 09:08:09;;;;;;;;;7.00;7.00;;;;;21.04;80.71;98747.31;5076026;28;45462;-56
2022/08/18 09:10:59;;;;;;;;;6.00;5.40;;;;;21.25;80.53;98755.31;5076026;28;45462;-56
2022/08/18 09:13:43;;;;;;;;;5.00;5.00;;;;;21.41;79.53;98754.75;5075186;28;45378;-56
2022/08/18 09:16:17;;;;;;;;;5.40;5.40;;;;;21.58;78.93;98752.25;5075568;28;45518;-66
2022/08/18 09:19:15;;;;;;;;;6.40;6.00;;;;;21.78;77.81;98752.25;5077161;28;45553;-66
2022/08/18 09:22:03;;;;;;;;;5.40;4.40;;;;;21.93;78.05;98753.53;5011725;28;45593;-66
2022/08/18 09:24:49;;;;;;;;;4.40;4.40;;;;;22.07;77.43;98738.84;5076098;28;45405;-66
2022/08/18 09:27:42;;;;;;;;;5.00;4.80;;;;;22.17;76.26;98742.34;5076980;28;45420;-66
2022/08/18 09:30:40;;;;;;;;;5.60;4.40;;;;;22.27;76.42;98741.38;5077078;28;45456;-66
2022/08/18 09:33:14;;;;;;;;;3.00;3.00;;;;;22.40;75.33;98745.56;5074690;28;45495;-66
2022/08/18 09:36:13;;;;;;;;;5.00;5.00;;;;;22.44;75.80;98738.94;5076136;28;45519;-56
2022/08/18 09:41:46;;;;;;;;;6.20;5.80;;;;;22.57;73.54;98723.31;5076505;28;45290;-56
2022/08/18 09:44:34;;;;;;;;;7.00;6.00;;;;;22.57;74.55;98721.50;5075762;28;45518;-55
2022/08/18 09:46:59;;;;;;;;;5.80;5.40;;;;;22.64;74.55;98725.25;5075378;28;45489;-56
2022/08/18 09:49:25;;;;;;;;;9.50;6.50;;;;;22.67;73.30;98709.84;5076207;28;45240;-56
2022/08/18 09:51:52;;;;;;;;;5.25;5.00;;;;;22.73;73.31;98717.31;5076554;28;45367;-56
2022/08/18 09:54:21;;;;;;;;;6.40;6.40;;;;;22.81;73.12;98718.28;5076252;28;46755;-56
2022/08/18 09:56:48;;;;;;;;;7.00;6.00;;;;;22.93;73.04;98711.75;5073745;28;45572;-56
2022/08/18 09:59:34;;;;;;;;;6.00;5.60;;;;;23.09;72.86;98716.47;5076107;28;45370;-56
2022/08/18 10:02:02;;;;;;;;;6.00;6.00;;;;;23.25;72.09;98724.72;5075782;28;45403;-57
2022/08/18 10:04:56;;;;;;;;;5.40;5.40;;;;;23.41;72.26;98723.19;5076214;28;45483;-55
2022/08/18 10:07:33;;;;;;;;;6.00;5.00;;;;;23.58;72.43;98725.94;5073304;28;45354;-56
2022/08/18 10:10:09;;;;;;;;;5.00;5.00;;;;;23.72;72.56;98724.56;5075829;28;45432;-56
2022/08/18 10:12:53;;;;;;;;;5.40;5.40;;;;;23.85;71.28;98730.38;5075706;28;45471;-55
2022/08/18 10:15:33;;;;;;;;;7.40;5.80;;;;;24.01;71.34;98725.13;5057120;28;47075;-54
2022/08/18 10:17:59;;;;;;;;;6.60;4.80;;;;;24.18;70.27;98720.72;5075808;28;45482;-56
2022/08/18 10:20:52;;;;;;;;;4.80;4.80;;;;;24.28;70.49;98721.53;5075739;28;45538;-55
2022/08/18 10:23:40;;;;;;;;;5.20;4.80;;;;;24.40;70.48;98718.56;5057710;28;45382;-57
2022/08/18 10:26:32;;;;;;;;;6.00;6.00;;;;;24.52;68.80;98725.34;5075601;28;45442;-57
2022/08/18 10:28:58;;;;;;;;;5.20;5.20;;;;;24.51;70.11;98713.72;5075503;28;45424;-54
2022/08/18 10:31:24;;;;;;;;;5.00;4.00;;;;;24.48;68.88;98721.28;5075423;28;45411;-56
2022/08/18 10:33:53;;;;;;;;;4.40;4.00;;;;;24.51;68.42;98716.44;5075126;28;45733;-55
2022/08/18 10:36:58;;;;;;;;;5.20;4.80;;;;;24.62;68.33;98713.47;5075453;28;46437;-56
2022/08/18 10:39:42;;;;;;;;;5.80;5.80;;;;;24.73;67.29;98711.50;5012727;28;45421;-69
2022/08/18 10:42:21;;;;;;;;;4.00;3.80;;;;;24.79;67.85;98722.50;5012870;28;45394;-63
2022/08/18 10:44:51;;;;;;;;;7.20;5.60;;;;;24.85;66.79;98720.97;5043115;27;45563;-67
2022/08/18 10:47:23;;;;;;;;;4.60;4.60;;;;;24.92;66.55;98716.66;5064301;28;45702;-67
2022/08/18 10:49:49;;;;;;;;;9.40;7.20;;;;;24.99;66.62;98717.69;5073031;28;45458;-66
2022/08/18 10:52:33;;;;;;;;;5.00;5.00;;;;;25.02;66.49;98718.22;5073770;28;45557;-66
2022/08/18 10:55:17;;;;;;;;;5.20;5.20;;;;;25.11;66.47;98720.97;5071758;28;45473;-66
2022/08/18 10:57:51;;;;;;;;;5.80;5.80;;;;;25.11;66.22;98718.28;5056634;28;45832;-66
2022/08/18 11:00:19;;;;;;;;;5.80;5.20;;;;;25.16;65.61;98722.16;5073078;28;45373;-66
2022/08/18 11:02:59;;;;;;;;;6.00;6.00;;;;;25.19;65.32;98710.19;5067415;28;45413;-63
2022/08/18 11:05:26;;;;;;;;;8.25;7.75;;;;;25.19;65.54;98726.38;5072360;28;45516;-69
2022/08/18 11:08:02;;;;;;;;;5.80;4.80;;;;;25.21;65.13;98725.22;5072178;27;45451;-63
2022/08/18 11:10:38;;;;;;;;;8.40;6.60;;;;;25.23;65.25;98706.16;5059907;28;45518;-63
2022/08/18 11:13:41;;;;;;;;;8.80;7.00;;;;;25.25;65.09;98723.88;5071812;28;45506;-63
2022/08/18 11:16:30;;;;;;;;;6.60;6.60;;;;;25.31;64.61;98719.66;5070328;28;45508;-63
2022/08/18 11:19:17;;;;;;;;;7.20;6.80;;;;;25.34;64.28;98722.03;5061244;27;46936;-61
2022/08/18 11:21:46;;;;;;;;;9.00;9.00;;;;;25.36;64.05;98723.56;5067997;28;45366;-61
2022/08/18 11:24:25;;;;;;;;;6.80;6.80;;;;;25.39;64.55;98719.69;5073677;28;45531;-61
2022/08/18 11:27:03;;;;;;;;;6.20;5.80;;;;;25.39;64.43;98717.00;5069402;28;45561;-60
2022/08/18 11:29:33;;;;;;;;;6.80;6.00;;;;;25.40;64.36;98716.00;5035604;28;47743;-60
2022/08/18 11:32:02;;;;;;;;;8.80;6.60;;;;;25.42;64.17;98718.53;5070499;28;45422;-60
2022/08/18 11:34:42;;;;;;;;;6.00;6.00;;;;;25.47;63.94;98710.78;5071621;28;45689;-58
2022/08/18 11:37:25;;;;;;;;;7.00;6.40;;;;;25.49;63.97;98711.44;5072978;28;45290;-61
2022/08/18 11:39:55;;;;;;;;;6.80;6.00;;;;;25.52;63.28;98708.41;5072222;28;46515;-60
2022/08/18 11:42:30;;;;;;;;;6.60;5.40;;;;;25.55;63.28;98702.69;5071019;28;45396;-62
2022/08/18 11:45:10;;;;;;;;;7.80;7.20;;;;;25.60;63.09;98705.75;5073371;28;45286;-61
2022/08/18 11:47:37;;;;;;;;;5.60;4.80;;;;;25.64;63.37;98697.16;5070936;28;45512;-63
2022/08/18 11:50:12;;;;;;;;;9.40;7.80;;;;;25.69;62.05;98700.19;5073116;28;46410;-60
2022/08/18 11:52:50;;;;;;;;;7.00;7.00;;;;;25.78;62.44;98702.91;5071362;28;45447;-60
2022/08/18 11:55:30;;;;;;;;;6.00;6.00;;;;;25.88;61.86;98704.44;5071439;28;45391;-61
2022/08/18 11:57:57;;;;;;;;;7.00;7.00;;;;;25.95;61.87;98702.75;5073303;28;45496;-61
2022/08/18 12:00:44;;;;;;;;;7.40;5.60;;;;;26.03;60.90;98705.44;5071198;28;45900;-61
2022/08/18 12:03:25;;;;;;;;;7.00;7.00;;;;;26.10;60.87;98704.78;5076183;28;45404;-62
2022/08/18 12:06:09;;;;;;;;;7.00;7.00;;;;;26.14;61.75;98703.44;5076439;28;45572;-61
2022/08/18 12:08:46;;;;;;;;;4.80;4.80;;;;;26.13;60.11;98710.69;5078199;28;45416;-62
2022/08/18 12:11:19;;;;;;;;;6.60;6.60;;;;;26.15;60.17;98713.19;5078017;28;46787;-62